sensor_id;sensor_type;location;lat;lon;timestamp;P1;durP1;ratioP1;P2;durP2;ratioP2
30036;SDS011;36325;51.512;-0.382;2022-07-30T00:00:30;11.93;;;5.95;;
30036;SDS011;36325;51.512;-0.382;2022-07-30T00:02:58;18.98;;;7.28;;
30036;SDS011;36325;51.512;-0.382;2022-07-30T00:05:25;13.32;;;6.60;;
30036;SDS011;36325;51.512;-0.382;2022-07-30T00:07:52;15.13;;;7.00;;
30036;SDS011;36325;51.512;-0.382;2022-07-30T00:10:21;17.85;;;7.22;;
30036;SDS011;36325;51.512;-0.382;2022-07-30T00:12:48;19.98;;;6.95;;
30036;SDS011;36325;51.512;-0.382;2022-07-30T00:15:16;14.50;;;6.80;;
30036;SDS011;36325;51.512;-0.382;2022-07-30T00:17:44;16.80;;;7.88;;
30036;SDS011;36325;51.512;-0.382;2022-07-30T00:20:12;15.82;;;7.95;;
30036;SDS011;36325;51.512;-0.382;2022-07-30T00:22:40;17.48;;;7.85;;
30036;SDS011;36325;51.512;-0.382;2022-07-30T00:25:08;12.90;;;8.32;;
30036;SDS011;36325;51.512;-0.382;2022-07-30T00:27:36;17.65;;;8.10;;
30036;SDS011;36325;51.512;-0.382;2022-07-30T00:30:04;17.60;;;8.13;;
30036;SDS011;36325;51.512;-0.382;2022-07-30T00:32:33;17.50;;;7.75;;
30036;SDS011;36325;51.512;-0.382;2022-07-30T00:35:03;12.57;;;7.53;;
30036;SDS011;36325;51.512;-0.382;2022-07-30T00:37:32;14.52;;;8.07;;
30036;SDS011;36325;51.512;-0.382;2022-07-30T00:39:59;13.98;;;8.10;;
30036;SDS011;36325;51.512;-0.382;2022-07-30T00:42:37;13.13;;;8.10;;
30036;SDS011;36325;51.512;-0.382;2022-07-30T00:45:06;18.92;;;9.10;;
30036;SDS011;36325;51.512;-0.382;2022-07-30T00:47:35;19.15;;;9.10;;
30036;SDS011;36325;51.512;-0.382;2022-07-30T00:50:04;17.02;;;9.23;;
30036;SDS011;36325;51.512;-0.382;2022-07-30T00:52:34;21.75;;;9.88;;
30036;SDS011;36325;51.512;-0.382;2022-07-30T00:55:05;18.40;;;10.13;;
30036;SDS011;36325;51.512;-0.382;2022-07-30T00:57:33;17.08;;;9.40;;
30036;SDS011;36325;51.512;-0.382;2022-07-30T01:00:01;17.58;;;8.95;;
30036;SDS011;36325;51.512;-0.382;2022-07-30T01:02:29;18.92;;;9.27;;
30036;SDS011;36325;51.512;-0.382;2022-07-30T01:04:56;25.77;;;10.88;;
30036;SDS011;36325;51.512;-0.382;2022-07-30T01:07:24;18.00;;;10.02;;
30036;SDS011;36325;51.512;-0.382;2022-07-30T01:09:52;24.10;;;10.45;;
30036;SDS011;36325;51.512;-0.382;2022-07-30T01:12:19;17.92;;;9.60;;
30036;SDS011;36325;51.512;-0.382;2022-07-30T01:14:50;17.48;;;10.13;;
30036;SDS011;36325;51.512;-0.382;2022-07-30T01:17:19;15.82;;;9.48;;
30036;SDS011;36325;51.512;-0.382;2022-07-30T01:19:46;14.70;;;9.48;;
30036;SDS011;36325;51.512;-0.382;2022-07-30T01:28:02;24.08;;;9.98;;
30036;SDS011;36325;51.512;-0.382;2022-07-30T01:30:34;31.58;;;11.07;;
30036;SDS011;36325;51.512;-0.382;2022-07-30T01:33:09;22.15;;;11.23;;
30036;SDS011;36325;51.512;-0.382;2022-07-30T01:35:40;23.35;;;10.20;;
30036;SDS011;36325;51.512;-0.382;2022-07-30T01:38:10;20.08;;;10.55;;
30036;SDS011;36325;51.512;-0.382;2022-07-30T01:40:39;20.42;;;11.30;;
30036;SDS011;36325;51.512;-0.382;2022-07-30T01:43:08;20.20;;;11.20;;
30036;SDS011;36325;51.512;-0.382;2022-07-30T01:45:36;20.80;;;10.90;;
30036;SDS011;36325;51.512;-0.382;2022-07-30T01:48:07;24.48;;;10.75;;
30036;SDS011;36325;51.512;-0.382;2022-07-30T01:50:36;19.30;;;11.25;;
30036;SDS011;36325;51.512;-0.382;2022-07-30T01:53:14;19.58;;;12.20;;
30036;SDS011;36325;51.512;-0.382;2022-07-30T01:55:44;20.33;;;11.80;;
30036;SDS011;36325;51.512;-0.382;2022-07-30T01:58:15;21.58;;;12.43;;
30036;SDS011;36325;51.512;-0.382;2022-07-30T02:00:47;20.77;;;12.82;;
30036;SDS011;36325;51.512;-0.382;2022-07-30T02:03:15;23.95;;;12.68;;
30036;SDS011;36325;51.512;-0.382;2022-07-30T02:05:44;21.77;;;13.23;;
30036;SDS011;36325;51.512;-0.382;2022-07-30T02:08:35;20.35;;;12.45;;
30036;SDS011;36325;51.512;-0.382;2022-07-30T02:11:11;23.60;;;13.55;;
30036;SDS011;36325;51.512;-0.382;2022-07-30T02:14:04;25.10;;;13.00;;
30036;SDS011;36325;51.512;-0.382;2022-07-30T02:16:54;22.92;;;13.65;;
30036;SDS011;36325;51.512;-0.382;2022-07-30T02:19:25;32.70;;;15.07;;
30036;SDS011;36325;51.512;-0.382;2022-07-30T02:22:01;24.02;;;15.10;;
30036;SDS011;36325;51.512;-0.382;2022-07-30T02:24:33;25.85;;;15.68;;
30036;SDS011;36325;51.512;-0.382;2022-07-30T02:27:05;30.48;;;15.15;;
30036;SDS011;36325;51.512;-0.382;2022-07-30T02:29:39;26.42;;;15.65;;
30036;SDS011;36325;51.512;-0.382;2022-07-30T02:32:10;26.83;;;16.15;;
30036;SDS011;36325;51.512;-0.382;2022-07-30T02:34:45;29.30;;;15.05;;
30036;SDS011;36325;51.512;-0.382;2022-07-30T02:37:15;29.08;;;15.75;;
30036;SDS011;36325;51.512;-0.382;2022-07-30T02:40:11;28.73;;;15.77;;
30036;SDS011;36325;51.512;-0.382;2022-07-30T02:42:50;24.67;;;15.77;;
30036;SDS011;36325;51.512;-0.382;2022-07-30T02:45:22;24.48;;;16.17;;
30036;SDS011;36325;51.512;-0.382;2022-07-30T02:47:52;24.35;;;14.82;;
30036;SDS011;36325;51.512;-0.382;2022-07-30T02:50:23;29.55;;;15.85;;
30036;SDS011;36325;51.512;-0.382;2022-07-30T02:52:52;40.42;;;15.52;;
30036;SDS011;36325;51.512;-0.382;2022-07-30T02:55:22;26.67;;;16.90;;
30036;SDS011;36325;51.512;-0.382;2022-07-30T02:57:53;32.00;;;16.98;;
30036;SDS011;36325;51.512;-0.382;2022-07-30T03:00:22;30.50;;;16.67;;
30036;SDS011;36325;51.512;-0.382;2022-07-30T03:02:52;30.15;;;17.65;;
30036;SDS011;36325;51.512;-0.382;2022-07-30T03:05:22;27.15;;;16.55;;
30036;SDS011;36325;51.512;-0.382;2022-07-30T03:07:53;26.35;;;15.68;;
30036;SDS011;36325;51.512;-0.382;2022-07-30T03:10:22;30.17;;;17.23;;
30036;SDS011;36325;51.512;-0.382;2022-07-30T03:12:51;29.13;;;16.17;;
30036;SDS011;36325;51.512;-0.382;2022-07-30T03:15:19;30.92;;;16.08;;
30036;SDS011;36325;51.512;-0.382;2022-07-30T03:17:51;29.00;;;15.15;;
30036;SDS011;36325;51.512;-0.382;2022-07-30T03:20:23;30.15;;;15.93;;
30036;SDS011;36325;51.512;-0.382;2022-07-30T03:22:54;31.13;;;16.83;;
30036;SDS011;36325;51.512;-0.382;2022-07-30T03:25:24;28.17;;;16.98;;
30036;SDS011;36325;51.512;-0.382;2022-07-30T03:27:54;30.00;;;16.75;;
30036;SDS011;36325;51.512;-0.382;2022-07-30T03:30:24;29.57;;;17.23;;
30036;SDS011;36325;51.512;-0.382;2022-07-30T03:32:52;27.70;;;17.25;;
30036;SDS011;36325;51.512;-0.382;2022-07-30T03:35:21;31.17;;;17.98;;
30036;SDS011;36325;51.512;-0.382;2022-07-30T03:37:53;26.15;;;17.23;;
30036;SDS011;36325;51.512;-0.382;2022-07-30T03:40:22;29.30;;;16.65;;
30036;SDS011;36325;51.512;-0.382;2022-07-30T03:42:50;33.72;;;17.50;;
30036;SDS011;36325;51.512;-0.382;2022-07-30T03:45:21;35.20;;;17.20;;
30036;SDS011;36325;51.512;-0.382;2022-07-30T03:47:54;27.40;;;17.15;;
30036;SDS011;36325;51.512;-0.382;2022-07-30T03:50:23;34.53;;;17.90;;
30036;SDS011;36325;51.512;-0.382;2022-07-30T03:52:50;33.45;;;16.42;;
30036;SDS011;36325;51.512;-0.382;2022-07-30T03:55:19;28.92;;;15.73;;
30036;SDS011;36325;51.512;-0.382;2022-07-30T03:58:16;27.73;;;16.88;;
30036;SDS011;36325;51.512;-0.382;2022-07-30T04:00:48;26.50;;;16.23;;
30036;SDS011;36325;51.512;-0.382;2022-07-30T04:05:57;27.48;;;16.30;;
30036;SDS011;36325;51.512;-0.382;2022-07-30T04:08:26;27.38;;;16.20;;
30036;SDS011;36325;51.512;-0.382;2022-07-30T04:10:53;25.75;;;15.88;;
30036;SDS011;36325;51.512;-0.382;2022-07-30T04:13:41;26.13;;;15.82;;
30036;SDS011;36325;51.512;-0.382;2022-07-30T04:16:17;27.40;;;16.92;;
30036;SDS011;36325;51.512;-0.382;2022-07-30T04:19:07;26.30;;;16.70;;
30036;SDS011;36325;51.512;-0.382;2022-07-30T04:21:39;39.42;;;16.98;;
30036;SDS011;36325;51.512;-0.382;2022-07-30T04:24:08;36.78;;;16.70;;
30036;SDS011;36325;51.512;-0.382;2022-07-30T04:26:37;29.95;;;16.90;;
30036;SDS011;36325;51.512;-0.382;2022-07-30T04:29:06;32.30;;;17.60;;
30036;SDS011;36325;51.512;-0.382;2022-07-30T04:31:35;27.63;;;16.35;;
30036;SDS011;36325;51.512;-0.382;2022-07-30T04:34:24;30.60;;;16.33;;
30036;SDS011;36325;51.512;-0.382;2022-07-30T04:36:52;26.90;;;16.40;;
30036;SDS011;36325;51.512;-0.382;2022-07-30T04:39:19;32.28;;;17.33;;
30036;SDS011;36325;51.512;-0.382;2022-07-30T04:41:46;28.23;;;16.67;;
30036;SDS011;36325;51.512;-0.382;2022-07-30T04:44:33;27.00;;;16.02;;
30036;SDS011;36325;51.512;-0.382;2022-07-30T04:47:21;31.90;;;16.50;;
30036;SDS011;36325;51.512;-0.382;2022-07-30T04:50:08;28.23;;;16.15;;
30036;SDS011;36325;51.512;-0.382;2022-07-30T04:52:37;24.88;;;16.23;;
30036;SDS011;36325;51.512;-0.382;2022-07-30T04:55:06;30.70;;;14.82;;
30036;SDS011;36325;51.512;-0.382;2022-07-30T04:57:37;28.43;;;15.37;;
30036;SDS011;36325;51.512;-0.382;2022-07-30T05:00:06;29.70;;;15.50;;
30036;SDS011;36325;51.512;-0.382;2022-07-30T05:02:39;35.25;;;15.38;;
30036;SDS011;36325;51.512;-0.382;2022-07-30T05:05:07;26.77;;;13.27;;
30036;SDS011;36325;51.512;-0.382;2022-07-30T05:07:37;28.30;;;14.68;;
30036;SDS011;36325;51.512;-0.382;2022-07-30T05:10:07;29.40;;;14.60;;
30036;SDS011;36325;51.512;-0.382;2022-07-30T05:12:36;22.40;;;13.85;;
30036;SDS011;36325;51.512;-0.382;2022-07-30T05:15:05;24.50;;;14.23;;
30036;SDS011;36325;51.512;-0.382;2022-07-30T05:17:34;30.52;;;14.65;;
30036;SDS011;36325;51.512;-0.382;2022-07-30T05:20:05;21.48;;;14.13;;
30036;SDS011;36325;51.512;-0.382;2022-07-30T05:22:53;30.08;;;14.23;;
30036;SDS011;36325;51.512;-0.382;2022-07-30T05:25:22;27.00;;;14.00;;
30036;SDS011;36325;51.512;-0.382;2022-07-30T05:27:52;21.65;;;13.32;;
30036;SDS011;36325;51.512;-0.382;2022-07-30T05:30:22;22.42;;;13.40;;
30036;SDS011;36325;51.512;-0.382;2022-07-30T05:32:54;23.90;;;13.77;;
30036;SDS011;36325;51.512;-0.382;2022-07-30T05:35:22;23.00;;;12.88;;
30036;SDS011;36325;51.512;-0.382;2022-07-30T05:37:49;22.52;;;13.20;;
30036;SDS011;36325;51.512;-0.382;2022-07-30T05:40:18;21.50;;;13.27;;
30036;SDS011;36325;51.512;-0.382;2022-07-30T05:43:14;25.38;;;12.90;;
30036;SDS011;36325;51.512;-0.382;2022-07-30T05:45:42;18.80;;;12.15;;
30036;SDS011;36325;51.512;-0.382;2022-07-30T05:48:09;22.70;;;11.45;;
30036;SDS011;36325;51.512;-0.382;2022-07-30T05:50:36;21.52;;;12.40;;
30036;SDS011;36325;51.512;-0.382;2022-07-30T05:53:03;18.88;;;10.10;;
30036;SDS011;36325;51.512;-0.382;2022-07-30T05:55:57;21.08;;;10.85;;
30036;SDS011;36325;51.512;-0.382;2022-07-30T05:58:48;18.90;;;11.63;;
30036;SDS011;36325;51.512;-0.382;2022-07-30T06:01:26;18.45;;;12.05;;
30036;SDS011;36325;51.512;-0.382;2022-07-30T06:03:56;20.38;;;12.05;;
30036;SDS011;36325;51.512;-0.382;2022-07-30T06:06:40;22.65;;;11.85;;
30036;SDS011;36325;51.512;-0.382;2022-07-30T06:09:07;19.70;;;11.02;;
30036;SDS011;36325;51.512;-0.382;2022-07-30T06:11:34;17.95;;;11.40;;
30036;SDS011;36325;51.512;-0.382;2022-07-30T06:14:02;20.70;;;10.57;;
30036;SDS011;36325;51.512;-0.382;2022-07-30T06:16:29;16.55;;;10.25;;
30036;SDS011;36325;51.512;-0.382;2022-07-30T06:18:56;17.52;;;9.75;;
30036;SDS011;36325;51.512;-0.382;2022-07-30T06:21:43;19.67;;;9.68;;
30036;SDS011;36325;51.512;-0.382;2022-07-30T06:24:32;19.50;;;8.95;;
30036;SDS011;36325;51.512;-0.382;2022-07-30T06:27:07;19.02;;;8.95;;
30036;SDS011;36325;51.512;-0.382;2022-07-30T06:29:34;16.67;;;8.50;;
30036;SDS011;36325;51.512;-0.382;2022-07-30T06:32:02;20.52;;;10.02;;
30036;SDS011;36325;51.512;-0.382;2022-07-30T06:34:29;17.58;;;10.38;;
30036;SDS011;36325;51.512;-0.382;2022-07-30T06:36:56;20.73;;;9.68;;
30036;SDS011;36325;51.512;-0.382;2022-07-30T06:39:24;19.17;;;9.73;;
30036;SDS011;36325;51.512;-0.382;2022-07-30T06:42:17;14.93;;;10.05;;
30036;SDS011;36325;51.512;-0.382;2022-07-30T06:45:07;19.45;;;10.57;;
30036;SDS011;36325;51.512;-0.382;2022-07-30T06:47:57;20.05;;;9.85;;
30036;SDS011;36325;51.512;-0.382;2022-07-30T06:50:28;16.20;;;9.50;;
30036;SDS011;36325;51.512;-0.382;2022-07-30T06:52:56;15.25;;;8.55;;
30036;SDS011;36325;51.512;-0.382;2022-07-30T06:55:32;24.33;;;8.13;;
30036;SDS011;36325;51.512;-0.382;2022-07-30T06:58:00;15.85;;;7.68;;
30036;SDS011;36325;51.512;-0.382;2022-07-30T07:00:47;14.13;;;7.72;;
30036;SDS011;36325;51.512;-0.382;2022-07-30T07:03:14;12.80;;;7.97;;
30036;SDS011;36325;51.512;-0.382;2022-07-30T07:05:42;13.70;;;7.53;;
30036;SDS011;36325;51.512;-0.382;2022-07-30T07:08:09;14.15;;;7.38;;
30036;SDS011;36325;51.512;-0.382;2022-07-30T07:10:42;17.20;;;7.40;;
30036;SDS011;36325;51.512;-0.382;2022-07-30T07:13:13;15.30;;;6.70;;
30036;SDS011;36325;51.512;-0.382;2022-07-30T07:15:41;11.07;;;6.28;;
30036;SDS011;36325;51.512;-0.382;2022-07-30T07:18:14;19.35;;;6.45;;
30036;SDS011;36325;51.512;-0.382;2022-07-30T07:20:56;11.93;;;5.80;;
30036;SDS011;36325;51.512;-0.382;2022-07-30T07:23:24;16.58;;;6.28;;
30036;SDS011;36325;51.512;-0.382;2022-07-30T07:26:05;11.57;;;6.00;;
30036;SDS011;36325;51.512;-0.382;2022-07-30T07:28:33;17.13;;;7.07;;
30036;SDS011;36325;51.512;-0.382;2022-07-30T07:31:02;10.18;;;5.95;;
30036;SDS011;36325;51.512;-0.382;2022-07-30T07:33:30;12.60;;;5.60;;
30036;SDS011;36325;51.512;-0.382;2022-07-30T07:35:58;9.77;;;4.53;;
30036;SDS011;36325;51.512;-0.382;2022-07-30T07:38:30;10.65;;;4.63;;
30036;SDS011;36325;51.512;-0.382;2022-07-30T07:40:58;11.50;;;5.13;;
30036;SDS011;36325;51.512;-0.382;2022-07-30T07:43:27;16.00;;;5.03;;
30036;SDS011;36325;51.512;-0.382;2022-07-30T07:45:57;11.55;;;4.18;;
30036;SDS011;36325;51.512;-0.382;2022-07-30T07:51:15;10.73;;;4.57;;
30036;SDS011;36325;51.512;-0.382;2022-07-30T07:53:43;7.13;;;3.70;;
30036;SDS011;36325;51.512;-0.382;2022-07-30T07:56:25;17.15;;;3.80;;
30036;SDS011;36325;51.512;-0.382;2022-07-30T07:58:54;12.50;;;4.07;;
30036;SDS011;36325;51.512;-0.382;2022-07-30T08:01:23;9.93;;;4.03;;
30036;SDS011;36325;51.512;-0.382;2022-07-30T08:04:09;9.43;;;4.25;;
30036;SDS011;36325;51.512;-0.382;2022-07-30T08:06:57;8.52;;;3.70;;
30036;SDS011;36325;51.512;-0.382;2022-07-30T08:09:44;13.55;;;4.05;;
30036;SDS011;36325;51.512;-0.382;2022-07-30T08:12:38;7.07;;;3.10;;
30036;SDS011;36325;51.512;-0.382;2022-07-30T08:15:25;6.03;;;3.20;;
30036;SDS011;36325;51.512;-0.382;2022-07-30T08:18:12;7.20;;;3.40;;
30036;SDS011;36325;51.512;-0.382;2022-07-30T08:20:50;8.20;;;3.08;;
30036;SDS011;36325;51.512;-0.382;2022-07-30T08:23:29;10.52;;;3.65;;
30036;SDS011;36325;51.512;-0.382;2022-07-30T08:25:57;4.72;;;2.75;;
30036;SDS011;36325;51.512;-0.382;2022-07-30T08:28:24;8.23;;;3.50;;
30036;SDS011;36325;51.512;-0.382;2022-07-30T08:31:02;6.35;;;3.22;;
30036;SDS011;36325;51.512;-0.382;2022-07-30T08:33:30;4.85;;;2.55;;
30036;SDS011;36325;51.512;-0.382;2022-07-30T08:35:58;8.57;;;3.17;;
30036;SDS011;36325;51.512;-0.382;2022-07-30T08:38:28;6.43;;;2.50;;
30036;SDS011;36325;51.512;-0.382;2022-07-30T08:40:56;7.30;;;2.15;;
30036;SDS011;36325;51.512;-0.382;2022-07-30T08:43:24;4.93;;;1.45;;
30036;SDS011;36325;51.512;-0.382;2022-07-30T08:45:55;8.38;;;2.03;;
30036;SDS011;36325;51.512;-0.382;2022-07-30T08:48:59;6.70;;;2.25;;
30036;SDS011;36325;51.512;-0.382;2022-07-30T08:51:35;3.85;;;2.10;;
30036;SDS011;36325;51.512;-0.382;2022-07-30T08:54:08;13.73;;;1.42;;
30036;SDS011;36325;51.512;-0.382;2022-07-30T08:56:36;4.28;;;1.20;;
30036;SDS011;36325;51.512;-0.382;2022-07-30T08:59:06;5.40;;;1.55;;
30036;SDS011;36325;51.512;-0.382;2022-07-30T09:01:35;4.18;;;1.50;;
30036;SDS011;36325;51.512;-0.382;2022-07-30T09:04:04;5.00;;;1.50;;
30036;SDS011;36325;51.512;-0.382;2022-07-30T09:06:36;5.60;;;2.38;;
30036;SDS011;36325;51.512;-0.382;2022-07-30T09:09:04;1.88;;;1.08;;
30036;SDS011;36325;51.512;-0.382;2022-07-30T09:11:33;2.30;;;1.20;;
30036;SDS011;36325;51.512;-0.382;2022-07-30T09:14:07;3.53;;;1.50;;
30036;SDS011;36325;51.512;-0.382;2022-07-30T09:16:36;2.58;;;1.15;;
30036;SDS011;36325;51.512;-0.382;2022-07-30T09:19:23;3.65;;;1.20;;
30036;SDS011;36325;51.512;-0.382;2022-07-30T09:21:54;1.50;;;0.90;;
30036;SDS011;36325;51.512;-0.382;2022-07-30T09:24:57;0.98;;;0.90;;
30036;SDS011;36325;51.512;-0.382;2022-07-30T09:27:45;5.57;;;1.20;;
30036;SDS011;36325;51.512;-0.382;2022-07-30T09:30:50;6.60;;;1.58;;
30036;SDS011;36325;51.512;-0.382;2022-07-30T09:33:38;6.88;;;2.20;;
30036;SDS011;36325;51.512;-0.382;2022-07-30T09:36:30;3.80;;;1.40;;
30036;SDS011;36325;51.512;-0.382;2022-07-30T09:39:33;2.42;;;1.10;;
30036;SDS011;36325;51.512;-0.382;2022-07-30T09:42:17;2.85;;;1.10;;
30036;SDS011;36325;51.512;-0.382;2022-07-30T09:44:46;5.45;;;1.10;;
30036;SDS011;36325;51.512;-0.382;2022-07-30T09:47:30;4.50;;;1.30;;
30036;SDS011;36325;51.512;-0.382;2022-07-30T09:50:06;5.63;;;1.10;;
30036;SDS011;36325;51.512;-0.382;2022-07-30T09:52:36;3.72;;;0.98;;
30036;SDS011;36325;51.512;-0.382;2022-07-30T09:55:10;2.35;;;1.10;;
30036;SDS011;36325;51.512;-0.382;2022-07-30T09:57:59;6.50;;;2.03;;
30036;SDS011;36325;51.512;-0.382;2022-07-30T10:00:32;6.68;;;1.30;;
30036;SDS011;36325;51.512;-0.382;2022-07-30T10:03:20;8.32;;;1.95;;
30036;SDS011;36325;51.512;-0.382;2022-07-30T10:06:18;2.13;;;1.38;;
30036;SDS011;36325;51.512;-0.382;2022-07-30T10:08:58;4.03;;;1.30;;
30036;SDS011;36325;51.512;-0.382;2022-07-30T10:11:26;3.28;;;1.20;;
30036;SDS011;36325;51.512;-0.382;2022-07-30T10:13:58;4.30;;;1.27;;
30036;SDS011;36325;51.512;-0.382;2022-07-30T10:16:28;1.33;;;1.10;;
30036;SDS011;36325;51.512;-0.382;2022-07-30T10:18:57;1.90;;;1.15;;
30036;SDS011;36325;51.512;-0.382;2022-07-30T10:21:44;3.38;;;1.20;;
30036;SDS011;36325;51.512;-0.382;2022-07-30T10:24:31;13.70;;;1.98;;
30036;SDS011;36325;51.512;-0.382;2022-07-30T10:27:20;2.88;;;1.52;;
30036;SDS011;36325;51.512;-0.382;2022-07-30T10:29:58;6.63;;;1.42;;
30036;SDS011;36325;51.512;-0.382;2022-07-30T10:32:29;5.78;;;1.90;;
30036;SDS011;36325;51.512;-0.382;2022-07-30T10:34:58;3.03;;;1.10;;
30036;SDS011;36325;51.512;-0.382;2022-07-30T10:37:25;5.30;;;1.38;;
30036;SDS011;36325;51.512;-0.382;2022-07-30T10:45:46;6.32;;;1.38;;
30036;SDS011;36325;51.512;-0.382;2022-07-30T10:48:33;4.22;;;1.65;;
30036;SDS011;36325;51.512;-0.382;2022-07-30T10:51:01;4.65;;;1.35;;
30036;SDS011;36325;51.512;-0.382;2022-07-30T10:53:33;6.28;;;1.77;;
30036;SDS011;36325;51.512;-0.382;2022-07-30T10:56:15;6.55;;;1.83;;
30036;SDS011;36325;51.512;-0.382;2022-07-30T10:59:07;5.55;;;1.20;;
30036;SDS011;36325;51.512;-0.382;2022-07-30T11:04:23;3.15;;;1.05;;
30036;SDS011;36325;51.512;-0.382;2022-07-30T11:09:59;4.40;;;1.92;;
30036;SDS011;36325;51.512;-0.382;2022-07-30T11:15:16;7.75;;;1.65;;
30036;SDS011;36325;51.512;-0.382;2022-07-30T11:25:46;1.85;;;0.98;;
30036;SDS011;36325;51.512;-0.382;2022-07-30T11:28:35;2.38;;;0.98;;
30036;SDS011;36325;51.512;-0.382;2022-07-30T11:31:23;9.35;;;1.38;;
30036;SDS011;36325;51.512;-0.382;2022-07-30T11:42:25;3.47;;;1.40;;
30036;SDS011;36325;51.512;-0.382;2022-07-30T11:47:44;3.17;;;1.23;;
30036;SDS011;36325;51.512;-0.382;2022-07-30T11:50:18;2.43;;;1.00;;
30036;SDS011;36325;51.512;-0.382;2022-07-30T11:52:52;2.50;;;1.00;;
30036;SDS011;36325;51.512;-0.382;2022-07-30T11:55:26;2.90;;;1.40;;
30036;SDS011;36325;51.512;-0.382;2022-07-30T11:57:56;2.97;;;1.30;;
30036;SDS011;36325;51.512;-0.382;2022-07-30T12:00:25;1.92;;;0.82;;
30036;SDS011;36325;51.512;-0.382;2022-07-30T12:03:08;10.98;;;1.67;;
30036;SDS011;36325;51.512;-0.382;2022-07-30T12:05:37;6.18;;;1.55;;
30036;SDS011;36325;51.512;-0.382;2022-07-30T12:08:05;4.22;;;1.15;;
30036;SDS011;36325;51.512;-0.382;2022-07-30T12:10:32;4.72;;;1.30;;
30036;SDS011;36325;51.512;-0.382;2022-07-30T12:13:19;3.10;;;1.30;;
30036;SDS011;36325;51.512;-0.382;2022-07-30T12:15:47;6.47;;;1.08;;
30036;SDS011;36325;51.512;-0.382;2022-07-30T12:18:25;4.50;;;1.60;;
30036;SDS011;36325;51.512;-0.382;2022-07-30T12:20:55;7.53;;;1.38;;
30036;SDS011;36325;51.512;-0.382;2022-07-30T12:23:28;2.88;;;1.25;;
30036;SDS011;36325;51.512;-0.382;2022-07-30T12:25:57;3.70;;;1.35;;
30036;SDS011;36325;51.512;-0.382;2022-07-30T12:28:25;2.55;;;1.10;;
30036;SDS011;36325;51.512;-0.382;2022-07-30T12:30:58;5.30;;;1.30;;
30036;SDS011;36325;51.512;-0.382;2022-07-30T12:33:30;2.78;;;1.60;;
30036;SDS011;36325;51.512;-0.382;2022-07-30T12:35:58;3.13;;;1.38;;
30036;SDS011;36325;51.512;-0.382;2022-07-30T12:38:26;2.80;;;1.20;;
30036;SDS011;36325;51.512;-0.382;2022-07-30T12:40:58;4.97;;;1.33;;
30036;SDS011;36325;51.512;-0.382;2022-07-30T12:43:41;3.80;;;1.75;;
30036;SDS011;36325;51.512;-0.382;2022-07-30T12:46:19;3.22;;;1.42;;
30036;SDS011;36325;51.512;-0.382;2022-07-30T12:48:58;2.10;;;1.38;;
30036;SDS011;36325;51.512;-0.382;2022-07-30T12:51:29;3.85;;;1.40;;
30036;SDS011;36325;51.512;-0.382;2022-07-30T12:53:59;1.92;;;1.17;;
30036;SDS011;36325;51.512;-0.382;2022-07-30T12:56:28;3.58;;;1.13;;
30036;SDS011;36325;51.512;-0.382;2022-07-30T12:58:57;3.33;;;1.88;;
30036;SDS011;36325;51.512;-0.382;2022-07-30T13:04:30;1.17;;;0.90;;
30036;SDS011;36325;51.512;-0.382;2022-07-30T13:07:06;3.65;;;1.23;;
30036;SDS011;36325;51.512;-0.382;2022-07-30T13:09:36;3.40;;;1.30;;
30036;SDS011;36325;51.512;-0.382;2022-07-30T13:12:05;5.33;;;1.40;;
30036;SDS011;36325;51.512;-0.382;2022-07-30T13:14:35;3.30;;;1.50;;
30036;SDS011;36325;51.512;-0.382;2022-07-30T13:17:02;2.33;;;1.10;;
30036;SDS011;36325;51.512;-0.382;2022-07-30T13:19:30;2.65;;;1.60;;
30036;SDS011;36325;51.512;-0.382;2022-07-30T13:21:58;3.03;;;1.10;;
30036;SDS011;36325;51.512;-0.382;2022-07-30T13:24:25;4.72;;;1.00;;
30036;SDS011;36325;51.512;-0.382;2022-07-30T13:26:53;1.77;;;0.57;;
30036;SDS011;36325;51.512;-0.382;2022-07-30T13:29:20;3.95;;;1.10;;
30036;SDS011;36325;51.512;-0.382;2022-07-30T13:31:48;4.07;;;0.88;;
30036;SDS011;36325;51.512;-0.382;2022-07-30T13:34:15;1.73;;;1.00;;
30036;SDS011;36325;51.512;-0.382;2022-07-30T13:36:42;1.48;;;0.90;;
30036;SDS011;36325;51.512;-0.382;2022-07-30T13:39:10;1.42;;;1.25;;
30036;SDS011;36325;51.512;-0.382;2022-07-30T13:41:37;2.90;;;1.02;;
30036;SDS011;36325;51.512;-0.382;2022-07-30T13:44:07;1.73;;;0.90;;
30036;SDS011;36325;51.512;-0.382;2022-07-30T13:46:34;1.83;;;0.80;;
30036;SDS011;36325;51.512;-0.382;2022-07-30T13:49:01;4.00;;;0.73;;
30036;SDS011;36325;51.512;-0.382;2022-07-30T13:51:30;3.70;;;0.90;;
30036;SDS011;36325;51.512;-0.382;2022-07-30T13:53:57;2.20;;;0.90;;
30036;SDS011;36325;51.512;-0.382;2022-07-30T13:56:24;2.22;;;0.98;;
30036;SDS011;36325;51.512;-0.382;2022-07-30T13:58:52;1.83;;;0.80;;
30036;SDS011;36325;51.512;-0.382;2022-07-30T14:01:20;5.47;;;1.00;;
30036;SDS011;36325;51.512;-0.382;2022-07-30T14:03:47;1.35;;;0.80;;
30036;SDS011;36325;51.512;-0.382;2022-07-30T14:06:16;2.28;;;1.02;;
30036;SDS011;36325;51.512;-0.382;2022-07-30T14:08:44;4.00;;;0.88;;
30036;SDS011;36325;51.512;-0.382;2022-07-30T14:11:11;1.23;;;0.93;;
30036;SDS011;36325;51.512;-0.382;2022-07-30T14:13:39;4.28;;;1.10;;
30036;SDS011;36325;51.512;-0.382;2022-07-30T14:16:07;1.15;;;0.65;;
30036;SDS011;36325;51.512;-0.382;2022-07-30T14:18:54;1.20;;;0.82;;
30036;SDS011;36325;51.512;-0.382;2022-07-30T14:21:23;1.98;;;0.85;;
30036;SDS011;36325;51.512;-0.382;2022-07-30T14:23:51;1.30;;;0.63;;
30036;SDS011;36325;51.512;-0.382;2022-07-30T14:26:18;1.90;;;0.88;;
30036;SDS011;36325;51.512;-0.382;2022-07-30T14:28:45;3.15;;;0.75;;
30036;SDS011;36325;51.512;-0.382;2022-07-30T14:31:12;1.10;;;0.80;;
30036;SDS011;36325;51.512;-0.382;2022-07-30T14:33:40;1.48;;;0.80;;
30036;SDS011;36325;51.512;-0.382;2022-07-30T14:36:07;5.28;;;0.90;;
30036;SDS011;36325;51.512;-0.382;2022-07-30T14:38:35;2.40;;;0.80;;
30036;SDS011;36325;51.512;-0.382;2022-07-30T14:41:05;1.45;;;0.80;;
30036;SDS011;36325;51.512;-0.382;2022-07-30T14:43:34;1.10;;;0.80;;
30036;SDS011;36325;51.512;-0.382;2022-07-30T14:46:01;1.05;;;0.70;;
30036;SDS011;36325;51.512;-0.382;2022-07-30T14:48:28;1.10;;;0.80;;
30036;SDS011;36325;51.512;-0.382;2022-07-30T14:50:56;1.42;;;0.70;;
30036;SDS011;36325;51.512;-0.382;2022-07-30T14:53:39;1.08;;;0.77;;
30036;SDS011;36325;51.512;-0.382;2022-07-30T14:56:07;4.28;;;0.60;;
30036;SDS011;36325;51.512;-0.382;2022-07-30T14:58:34;3.53;;;0.70;;
30036;SDS011;36325;51.512;-0.382;2022-07-30T15:01:01;4.38;;;1.10;;
30036;SDS011;36325;51.512;-0.382;2022-07-30T15:03:42;2.42;;;0.70;;
30036;SDS011;36325;51.512;-0.382;2022-07-30T15:06:10;0.93;;;0.73;;
30036;SDS011;36325;51.512;-0.382;2022-07-30T15:08:40;2.25;;;0.80;;
30036;SDS011;36325;51.512;-0.382;2022-07-30T15:11:08;3.13;;;1.10;;
30036;SDS011;36325;51.512;-0.382;2022-07-30T15:13:36;0.88;;;0.70;;
30036;SDS011;36325;51.512;-0.382;2022-07-30T15:16:05;1.15;;;0.70;;
30036;SDS011;36325;51.512;-0.382;2022-07-30T15:18:33;0.88;;;0.70;;
30036;SDS011;36325;51.512;-0.382;2022-07-30T15:21:00;3.80;;;1.00;;
30036;SDS011;36325;51.512;-0.382;2022-07-30T15:23:27;1.27;;;0.95;;
30036;SDS011;36325;51.512;-0.382;2022-07-30T15:25:54;2.85;;;0.68;;
30036;SDS011;36325;51.512;-0.382;2022-07-30T15:28:22;0.73;;;0.57;;
30036;SDS011;36325;51.512;-0.382;2022-07-30T15:30:49;2.85;;;0.73;;
30036;SDS011;36325;51.512;-0.382;2022-07-30T15:33:16;1.80;;;0.80;;
30036;SDS011;36325;51.512;-0.382;2022-07-30T15:35:44;2.67;;;0.70;;
30036;SDS011;36325;51.512;-0.382;2022-07-30T15:38:11;0.88;;;0.50;;
30036;SDS011;36325;51.512;-0.382;2022-07-30T15:40:42;2.58;;;0.95;;
30036;SDS011;36325;51.512;-0.382;2022-07-30T15:43:11;3.88;;;0.70;;